sensor_id;sensor_type;location;lat;lon;timestamp;pressure;altitude;pressure_sealevel;temperature;humidity
54872;BME280;43914;57.680;11.982;2023-05-10T00:00:16;100662.94;;;9.68;46.39
54872;BME280;43914;57.680;11.982;2023-05-10T00:02:42;100661.25;;;9.64;46.76
54872;BME280;43914;57.680;11.982;2023-05-10T00:05:08;100659.15;;;9.62;46.69
54872;BME280;43914;57.680;11.982;2023-05-10T00:07:33;100650.48;;;9.57;46.82
54872;BME280;43914;57.680;11.982;2023-05-10T00:09:59;100656.80;;;9.57;46.95
54872;BME280;43914;57.680;11.982;2023-05-10T00:12:24;100654.13;;;9.58;47.14
54872;BME280;43914;57.680;11.982;2023-05-10T00:14:49;100651.66;;;9.56;47.11
54872;BME280;43914;57.680;11.982;2023-05-10T00:17:15;100650.36;;;9.55;47.21
54872;BME280;43914;57.680;11.982;2023-05-10T00:19:40;100647.97;;;9.50;47.36
54872;BME280;43914;57.680;11.982;2023-05-10T00:22:06;100646.14;;;9.48;47.50
54872;BME280;43914;57.680;11.982;2023-05-10T00:24:31;100643.49;;;9.45;47.49
54872;BME280;43914;57.680;11.982;2023-05-10T00:26:57;100641.75;;;9.41;47.68
54872;BME280;43914;57.680;11.982;2023-05-10T00:29:23;100643.61;;;9.39;47.73
54872;BME280;43914;57.680;11.982;2023-05-10T00:31:49;100641.17;;;9.37;47.78
54872;BME280;43914;57.680;11.982;2023-05-10T00:34:14;100638.96;;;9.36;47.97
54872;BME280;43914;57.680;11.982;2023-05-10T00:36:40;100638.73;;;9.35;48.05
54872;BME280;43914;57.680;11.982;2023-05-10T00:39:06;100636.20;;;9.33;48.13
54872;BME280;43914;57.680;11.982;2023-05-10T00:41:31;100640.02;;;9.34;48.23
54872;BME280;43914;57.680;11.982;2023-05-10T00:43:58;100634.59;;;9.33;48.28
54872;BME280;43914;57.680;11.982;2023-05-10T00:46:23;100633.78;;;9.30;48.38
54872;BME280;43914;57.680;11.982;2023-05-10T00:48:50;100633.90;;;9.25;48.55
54872;BME280;43914;57.680;11.982;2023-05-10T00:51:15;100636.91;;;9.22;48.55
54872;BME280;43914;57.680;11.982;2023-05-10T00:53:41;100632.30;;;9.19;48.80
54872;BME280;43914;57.680;11.982;2023-05-10T00:56:07;100634.48;;;9.16;48.80
54872;BME280;43914;57.680;11.982;2023-05-10T00:58:32;100631.86;;;9.15;48.84
54872;BME280;43914;57.680;11.982;2023-05-10T01:00:58;100631.91;;;9.13;48.98
54872;BME280;43914;57.680;11.982;2023-05-10T01:03:25;100631.27;;;9.11;49.08
54872;BME280;43914;57.680;11.982;2023-05-10T01:05:51;100630.33;;;9.08;49.16
54872;BME280;43914;57.680;11.982;2023-05-10T01:08:17;100629.18;;;9.06;49.37
54872;BME280;43914;57.680;11.982;2023-05-10T01:10:43;100629.79;;;9.05;49.55
54872;BME280;43914;57.680;11.982;2023-05-10T01:13:09;100628.20;;;9.06;49.69
54872;BME280;43914;57.680;11.982;2023-05-10T01:15:36;100622.23;;;9.04;49.63
54872;BME280;43914;57.680;11.982;2023-05-10T01:18:03;100623.17;;;9.02;49.83
54872;BME280;43914;57.680;11.982;2023-05-10T01:20:37;100621.26;;;9.02;49.98
54872;BME280;43914;57.680;11.982;2023-05-10T01:34:15;100615.83;;;8.91;50.44
54872;BME280;43914;57.680;11.982;2023-05-10T01:36:48;100614.27;;;8.91;50.50
54872;BME280;43914;57.680;11.982;2023-05-10T01:39:26;100609.42;;;8.92;50.56
54872;BME280;43914;57.680;11.982;2023-05-10T01:42:01;100609.83;;;8.92;50.60
54872;BME280;43914;57.680;11.982;2023-05-10T01:44:35;100606.25;;;8.91;50.68
54872;BME280;43914;57.680;11.982;2023-05-10T01:47:44;100606.19;;;8.89;50.69
54872;BME280;43914;57.680;11.982;2023-05-10T01:50:23;100608.38;;;8.89;50.77
54872;BME280;43914;57.680;11.982;2023-05-10T01:52:53;100603.42;;;8.86;50.83
54872;BME280;43914;57.680;11.982;2023-05-10T01:55:21;100601.42;;;8.84;51.10
54872;BME280;43914;57.680;11.982;2023-05-10T01:57:51;100601.91;;;8.83;50.96
54872;BME280;43914;57.680;11.982;2023-05-10T02:00:19;100605.27;;;8.80;51.19
54872;BME280;43914;57.680;11.982;2023-05-10T02:02:47;100605.42;;;8.79;51.24
54872;BME280;43914;57.680;11.982;2023-05-10T02:05:15;100603.68;;;8.77;51.48
54872;BME280;43914;57.680;11.982;2023-05-10T02:07:42;100598.59;;;8.76;51.50
54872;BME280;43914;57.680;11.982;2023-05-10T02:10:09;100600.21;;;8.74;51.59
54872;BME280;43914;57.680;11.982;2023-05-10T02:12:37;100597.29;;;8.77;51.74
54872;BME280;43914;57.680;11.982;2023-05-10T02:15:05;100597.89;;;8.76;51.84
54872;BME280;43914;57.680;11.982;2023-05-10T02:17:32;100597.38;;;8.77;51.87
54872;BME280;43914;57.680;11.982;2023-05-10T02:20:01;100594.06;;;8.77;52.04
54872;BME280;43914;57.680;11.982;2023-05-10T02:22:28;100592.09;;;8.77;51.98
54872;BME280;43914;57.680;11.982;2023-05-10T02:24:55;100587.65;;;8.75;51.95
54872;BME280;43914;57.680;11.982;2023-05-10T02:27:23;100587.36;;;8.73;51.96
54872;BME280;43914;57.680;11.982;2023-05-10T02:29:50;100592.52;;;8.72;52.22
54872;BME280;43914;57.680;11.982;2023-05-10T02:32:17;100586.73;;;8.69;52.28
54872;BME280;43914;57.680;11.982;2023-05-10T02:34:45;100587.05;;;8.68;52.25
54872;BME280;43914;57.680;11.982;2023-05-10T02:37:18;100584.61;;;8.65;52.51
54872;BME280;43914;57.680;11.982;2023-05-10T02:39:47;100583.22;;;8.65;52.59
54872;BME280;43914;57.680;11.982;2023-05-10T02:42:16;100579.21;;;8.64;52.56
54872;BME280;43914;57.680;11.982;2023-05-10T02:44:43;100580.87;;;8.65;52.73
54872;BME280;43914;57.680;11.982;2023-05-10T02:47:10;100578.76;;;8.65;52.72
54872;BME280;43914;57.680;11.982;2023-05-10T02:49:36;100577.08;;;8.65;52.83
54872;BME280;43914;57.680;11.982;2023-05-10T02:52:05;100573.66;;;8.66;52.73
54872;BME280;43914;57.680;11.982;2023-05-10T02:54:35;100574.65;;;8.66;52.97
54872;BME280;43914;57.680;11.982;2023-05-10T02:57:05;100574.17;;;8.65;52.93
54872;BME280;43914;57.680;11.982;2023-05-10T02:59:32;100575.48;;;8.64;53.12
54872;BME280;43914;57.680;11.982;2023-05-10T03:01:59;100579.16;;;8.64;53.07
54872;BME280;43914;57.680;11.982;2023-05-10T03:04:25;100573.58;;;8.63;53.08
54872;BME280;43914;57.680;11.982;2023-05-10T03:06:51;100575.09;;;8.64;53.38
54872;BME280;43914;57.680;11.982;2023-05-10T03:09:18;100574.20;;;8.66;53.46
54872;BME280;43914;57.680;11.982;2023-05-10T03:14:57;100576.44;;;8.67;53.68
54872;BME280;43914;57.680;11.982;2023-05-10T03:17:32;100572.91;;;8.68;53.64
54872;BME280;43914;57.680;11.982;2023-05-10T03:20:06;100573.64;;;8.70;53.62
54872;BME280;43914;57.680;11.982;2023-05-10T03:22:38;100573.46;;;8.71;53.61
54872;BME280;43914;57.680;11.982;2023-05-10T03:25:08;100574.83;;;8.73;53.74
54872;BME280;43914;57.680;11.982;2023-05-10T03:27:38;100573.25;;;8.76;53.61
54872;BME280;43914;57.680;11.982;2023-05-10T03:30:05;100569.48;;;8.76;53.54
54872;BME280;43914;57.680;11.982;2023-05-10T03:32:33;100568.63;;;8.79;53.73
54872;BME280;43914;57.680;11.982;2023-05-10T03:35:00;100574.37;;;8.82;53.59
54872;BME280;43914;57.680;11.982;2023-05-10T03:37:27;100572.91;;;8.83;53.66
54872;BME280;43914;57.680;11.982;2023-05-10T03:39:52;100573.20;;;8.89;53.70
54872;BME280;43914;57.680;11.982;2023-05-10T03:42:18;100575.39;;;8.91;53.62
54872;BME280;43914;57.680;11.982;2023-05-10T03:44:43;100577.88;;;8.95;53.64
54872;BME280;43914;57.680;11.982;2023-05-10T03:47:09;100572.67;;;8.97;53.62
54872;BME280;43914;57.680;11.982;2023-05-10T03:49:34;100575.20;;;9.00;53.63
54872;BME280;43914;57.680;11.982;2023-05-10T03:52:00;100571.36;;;9.02;53.67
54872;BME280;43914;57.680;11.982;2023-05-10T03:54:26;100572.41;;;9.04;53.76
54872;BME280;43914;57.680;11.982;2023-05-10T03:56:51;100568.79;;;9.07;53.63
54872;BME280;43914;57.680;11.982;2023-05-10T03:59:17;100569.08;;;9.09;53.58
54872;BME280;43914;57.680;11.982;2023-05-10T04:01:42;100570.11;;;9.10;53.56
54872;BME280;43914;57.680;11.982;2023-05-10T04:04:08;100571.63;;;9.10;53.71
54872;BME280;43914;57.680;11.982;2023-05-10T04:06:33;100571.22;;;9.12;53.79
54872;BME280;43914;57.680;11.982;2023-05-10T04:08:58;100567.14;;;9.15;53.89
54872;BME280;43914;57.680;11.982;2023-05-10T04:11:25;100570.55;;;9.17;53.72
54872;BME280;43914;57.680;11.982;2023-05-10T04:13:51;100565.33;;;9.20;53.77
54872;BME280;43914;57.680;11.982;2023-05-10T04:16:16;100565.02;;;9.26;53.78
54872;BME280;43914;57.680;11.982;2023-05-10T04:18:42;100562.52;;;9.29;53.67
54872;BME280;43914;57.680;11.982;2023-05-10T04:21:14;100554.44;;;9.28;53.69
54872;BME280;43914;57.680;11.982;2023-05-10T04:23:40;100564.89;;;9.38;53.67
54872;BME280;43914;57.680;11.982;2023-05-10T04:26:06;100562.85;;;9.42;53.70
54872;BME280;43914;57.680;11.982;2023-05-10T04:28:31;100559.42;;;9.45;53.67
54872;BME280;43914;57.680;11.982;2023-05-10T04:31:04;100560.01;;;9.47;53.56
54872;BME280;43914;57.680;11.982;2023-05-10T04:33:31;100558.59;;;9.51;53.61
54872;BME280;43914;57.680;11.982;2023-05-10T04:36:00;100557.94;;;9.58;53.55
54872;BME280;43914;57.680;11.982;2023-05-10T04:38:26;100558.31;;;9.63;53.43
54872;BME280;43914;57.680;11.982;2023-05-10T04:40:52;100561.52;;;9.70;53.28
54872;BME280;43914;57.680;11.982;2023-05-10T04:43:18;100554.38;;;9.75;53.21
54872;BME280;43914;57.680;11.982;2023-05-10T04:45:43;100553.20;;;9.84;53.04
54872;BME280;43914;57.680;11.982;2023-05-10T04:48:09;100554.25;;;9.90;52.91
54872;BME280;43914;57.680;11.982;2023-05-10T04:50:35;100558.45;;;9.95;52.71
54872;BME280;43914;57.680;11.982;2023-05-10T04:53:01;100552.02;;;10.02;52.87
54872;BME280;43914;57.680;11.982;2023-05-10T04:55:27;100551.60;;;10.08;52.70
54872;BME280;43914;57.680;11.982;2023-05-10T04:57:53;100549.38;;;10.11;52.53
54872;BME280;43914;57.680;11.982;2023-05-10T05:00:22;100536.05;;;10.08;52.56
54872;BME280;43914;57.680;11.982;2023-05-10T05:02:47;100555.67;;;10.22;52.33
54872;BME280;43914;57.680;11.982;2023-05-10T05:05:13;100553.09;;;10.27;52.15
54872;BME280;43914;57.680;11.982;2023-05-10T05:07:39;100549.44;;;10.35;52.23
54872;BME280;43914;57.680;11.982;2023-05-10T05:10:06;100546.53;;;10.40;52.04
54872;BME280;43914;57.680;11.982;2023-05-10T05:12:32;100544.26;;;10.45;52.17
54872;BME280;43914;57.680;11.982;2023-05-10T05:14:57;100544.52;;;10.49;52.08
54872;BME280;43914;57.680;11.982;2023-05-10T05:17:23;100546.59;;;10.54;51.80
54872;BME280;43914;57.680;11.982;2023-05-10T05:19:48;100544.58;;;10.59;51.63
54872;BME280;43914;57.680;11.982;2023-05-10T05:22:14;100545.05;;;10.64;51.55
54872;BME280;43914;57.680;11.982;2023-05-10T05:24:41;100541.38;;;10.69;51.41
54872;BME280;43914;57.680;11.982;2023-05-10T05:27:06;100548.10;;;10.74;51.27
54872;BME280;43914;57.680;11.982;2023-05-10T05:29:32;100548.73;;;10.79;51.27
54872;BME280;43914;57.680;11.982;2023-05-10T05:31:58;100552.46;;;10.84;51.19
54872;BME280;43914;57.680;11.982;2023-05-10T05:34:23;100554.52;;;10.87;51.03
54872;BME280;43914;57.680;11.982;2023-05-10T05:36:53;100555.40;;;10.89;51.07
54872;BME280;43914;57.680;11.982;2023-05-10T05:39:19;100556.12;;;10.93;51.17
54872;BME280;43914;57.680;11.982;2023-05-10T05:41:45;100559.18;;;10.99;51.14
54872;BME280;43914;57.680;11.982;2023-05-10T05:44:11;100559.98;;;11.03;51.09
54872;BME280;43914;57.680;11.982;2023-05-10T05:46:37;100557.80;;;11.09;51.17
54872;BME280;43914;57.680;11.982;2023-05-10T05:49:02;100557.69;;;11.16;51.17
54872;BME280;43914;57.680;11.982;2023-05-10T05:51:27;100559.08;;;11.23;51.18
54872;BME280;43914;57.680;11.982;2023-05-10T05:53:53;100557.73;;;11.28;50.98
54872;BME280;43914;57.680;11.982;2023-05-10T05:56:18;100556.41;;;11.34;50.75
54872;BME280;43914;57.680;11.982;2023-05-10T05:58:50;100553.69;;;11.41;50.67
54872;BME280;43914;57.680;11.982;2023-05-10T06:01:16;100554.96;;;11.46;50.38
54872;BME280;43914;57.680;11.982;2023-05-10T06:03:42;100557.41;;;11.49;50.10
54872;BME280;43914;57.680;11.982;2023-05-10T06:06:08;100557.15;;;11.54;50.11
54872;BME280;43914;57.680;11.982;2023-05-10T06:08:33;100557.10;;;11.61;50.27
54872;BME280;43914;57.680;11.982;2023-05-10T06:11:00;100558.96;;;11.67;50.30
54872;BME280;43914;57.680;11.982;2023-05-10T06:13:26;100559.20;;;11.72;50.41
54872;BME280;43914;57.680;11.982;2023-05-10T06:15:57;100554.08;;;11.79;50.29
54872;BME280;43914;57.680;11.982;2023-05-10T06:18:23;100550.33;;;11.86;50.20
54872;BME280;43914;57.680;11.982;2023-05-10T06:20:49;100549.90;;;11.93;49.93
54872;BME280;43914;57.680;11.982;2023-05-10T06:23:15;100543.36;;;12.00;49.78
54872;BME280;43914;57.680;11.982;2023-05-10T06:25:41;100549.10;;;12.05;49.65
54872;BME280;43914;57.680;11.982;2023-05-10T06:28:06;100555.02;;;12.12;49.55
54872;BME280;43914;57.680;11.982;2023-05-10T06:30:32;100555.48;;;12.20;49.49
54872;BME280;43914;57.680;11.982;2023-05-10T06:32:57;100555.67;;;12.29;49.43
54872;BME280;43914;57.680;11.982;2023-05-10T06:35:24;100557.48;;;12.34;49.12
54872;BME280;43914;57.680;11.982;2023-05-10T06:37:49;100558.30;;;12.40;49.19
54872;BME280;43914;57.680;11.982;2023-05-10T06:40:16;100557.65;;;12.47;48.92
54872;BME280;43914;57.680;11.982;2023-05-10T06:42:42;100560.00;;;12.51;48.60
54872;BME280;43914;57.680;11.982;2023-05-10T06:45:08;100558.48;;;12.58;48.46
54872;BME280;43914;57.680;11.982;2023-05-10T06:47:34;100559.94;;;12.66;48.52
54872;BME280;43914;57.680;11.982;2023-05-10T06:50:00;100552.55;;;12.73;48.24
54872;BME280;43914;57.680;11.982;2023-05-10T06:52:26;100556.52;;;12.80;48.19
54872;BME280;43914;57.680;11.982;2023-05-10T06:54:52;100551.80;;;12.84;47.55
54872;BME280;43914;57.680;11.982;2023-05-10T06:57:17;100555.88;;;12.89;47.47
54872;BME280;43914;57.680;11.982;2023-05-10T06:59:43;100558.09;;;12.95;47.88
54872;BME280;43914;57.680;11.982;2023-05-10T07:02:08;100556.48;;;13.01;47.42
54872;BME280;43914;57.680;11.982;2023-05-10T07:04:34;100549.76;;;13.07;47.14
54872;BME280;43914;57.680;11.982;2023-05-10T07:06:59;100555.80;;;13.14;47.22
54872;BME280;43914;57.680;11.982;2023-05-10T07:09:25;100554.66;;;13.21;47.20
54872;BME280;43914;57.680;11.982;2023-05-10T07:11:50;100551.66;;;13.29;46.84
54872;BME280;43914;57.680;11.982;2023-05-10T07:14:16;100538.57;;;13.35;46.57
54872;BME280;43914;57.680;11.982;2023-05-10T07:16:41;100536.56;;;13.45;46.19
54872;BME280;43914;57.680;11.982;2023-05-10T07:19:07;100543.45;;;13.51;45.80
54872;BME280;43914;57.680;11.982;2023-05-10T07:21:33;100543.83;;;13.57;45.73
54872;BME280;43914;57.680;11.982;2023-05-10T07:24:01;100541.63;;;13.63;45.74
54872;BME280;43914;57.680;11.982;2023-05-10T07:26:26;100539.15;;;13.70;45.65
54872;BME280;43914;57.680;11.982;2023-05-10T07:28:52;100544.45;;;13.79;45.78
54872;BME280;43914;57.680;11.982;2023-05-10T07:31:18;100543.86;;;13.86;45.38
54872;BME280;43914;57.680;11.982;2023-05-10T07:33:43;100532.30;;;13.87;45.47
54872;BME280;43914;57.680;11.982;2023-05-10T07:36:09;100538.35;;;14.00;45.31
54872;BME280;43914;57.680;11.982;2023-05-10T07:38:34;100538.33;;;14.07;44.72
54872;BME280;43914;57.680;11.982;2023-05-10T07:41:00;100537.64;;;14.11;44.52
54872;BME280;43914;57.680;11.982;2023-05-10T07:43:26;100536.73;;;14.17;44.59
54872;BME280;43914;57.680;11.982;2023-05-10T07:45:52;100535.27;;;14.25;44.71
54872;BME280;43914;57.680;11.982;2023-05-10T07:48:17;100533.09;;;14.30;44.17
54872;BME280;43914;57.680;11.982;2023-05-10T07:50:43;100533.15;;;14.32;44.00
54872;BME280;43914;57.680;11.982;2023-05-10T07:53:08;100530.44;;;14.36;43.93
54872;BME280;43914;57.680;11.982;2023-05-10T07:55:34;100530.84;;;14.40;44.14
54872;BME280;43914;57.680;11.982;2023-05-10T07:57:59;100528.55;;;14.46;44.09
54872;BME280;43914;57.680;11.982;2023-05-10T08:00:26;100530.99;;;14.52;43.82
54872;BME280;43914;57.680;11.982;2023-05-10T08:02:52;100532.21;;;14.57;43.94
54872;BME280;43914;57.680;11.982;2023-05-10T08:05:18;100528.89;;;14.63;43.88
54872;BME280;43914;57.680;11.982;2023-05-10T08:07:43;100527.11;;;14.68;43.70
54872;BME280;43914;57.680;11.982;2023-05-10T08:10:10;100526.98;;;14.75;43.66
54872;BME280;43914;57.680;11.982;2023-05-10T08:12:36;100526.29;;;14.79;43.69
54872;BME280;43914;57.680;11.982;2023-05-10T08:15:03;100529.90;;;14.89;43.60
54872;BME280;43914;57.680;11.982;2023-05-10T08:17:28;100530.50;;;14.96;43.43
54872;BME280;43914;57.680;11.982;2023-05-10T08:19:54;100532.85;;;15.06;43.66
54872;BME280;43914;57.680;11.982;2023-05-10T08:22:19;100530.14;;;15.14;42.37
54872;BME280;43914;57.680;11.982;2023-05-10T08:24:45;100527.21;;;15.20;41.66
54872;BME280;43914;57.680;11.982;2023-05-10T08:27:10;100529.36;;;15.25;41.54
54872;BME280;43914;57.680;11.982;2023-05-10T08:29:37;100531.70;;;15.32;41.44
54872;BME280;43914;57.680;11.982;2023-05-10T08:32:03;100534.88;;;15.40;41.68
54872;BME280;43914;57.680;11.982;2023-05-10T08:34:28;100527.19;;;15.48;41.23
54872;BME280;43914;57.680;11.982;2023-05-10T08:36:56;100533.40;;;15.55;41.10
54872;BME280;43914;57.680;11.982;2023-05-10T08:39:22;100529.30;;;15.63;41.04
54872;BME280;43914;57.680;11.982;2023-05-10T08:41:51;100528.34;;;15.70;40.90
54872;BME280;43914;57.680;11.982;2023-05-10T08:44:18;100530.73;;;15.78;40.80
54872;BME280;43914;57.680;11.982;2023-05-10T08:46:46;100530.73;;;15.83;40.51
54872;BME280;43914;57.680;11.982;2023-05-10T08:49:17;100525.73;;;15.89;40.16
54872;BME280;43914;57.680;11.982;2023-05-10T08:51:50;100535.00;;;15.92;39.59
54872;BME280;43914;57.680;11.982;2023-05-10T08:54:16;100533.52;;;15.94;39.53
54872;BME280;43914;57.680;11.982;2023-05-10T08:56:42;100536.55;;;15.95;39.73
54872;BME280;43914;57.680;11.982;2023-05-10T08:59:08;100539.82;;;16.00;40.13
54872;BME280;43914;57.680;11.982;2023-05-10T09:01:35;100541.03;;;16.08;40.46
54872;BME280;43914;57.680;11.982;2023-05-10T09:04:02;100543.00;;;16.16;40.43
54872;BME280;43914;57.680;11.982;2023-05-10T09:06:29;100541.60;;;16.24;39.93
54872;BME280;43914;57.680;11.982;2023-05-10T09:08:54;100543.24;;;16.26;39.24
54872;BME280;43914;57.680;11.982;2023-05-10T09:11:20;100544.60;;;16.28;39.13
54872;BME280;43914;57.680;11.982;2023-05-10T09:13:48;100547.18;;;16.28;39.10
54872;BME280;43914;57.680;11.982;2023-05-10T09:16:14;100542.20;;;16.29;39.51
54872;BME280;43914;57.680;11.982;2023-05-10T09:18:39;100546.27;;;16.34;39.48
54872;BME280;43914;57.680;11.982;2023-05-10T09:21:05;100540.69;;;16.36;39.61
54872;BME280;43914;57.680;11.982;2023-05-10T09:23:30;100544.38;;;16.39;39.52
54872;BME280;43914;57.680;11.982;2023-05-10T09:26:07;100543.55;;;16.41;39.10
54872;BME280;43914;57.680;11.982;2023-05-10T09:28:34;100541.37;;;16.42;39.11
54872;BME280;43914;57.680;11.982;2023-05-10T09:30:59;100546.59;;;16.45;39.33
54872;BME280;43914;57.680;11.982;2023-05-10T09:33:26;100546.45;;;16.48;39.21
54872;BME280;43914;57.680;11.982;2023-05-10T09:35:52;100544.59;;;16.52;39.54
54872;BME280;43914;57.680;11.982;2023-05-10T09:38:17;100544.77;;;16.58;39.05
54872;BME280;43914;57.680;11.982;2023-05-10T09:40:51;100543.17;;;16.63;39.13
54872;BME280;43914;57.680;11.982;2023-05-10T09:43:20;100537.21;;;16.69;38.85
54872;BME280;43914;57.680;11.982;2023-05-10T09:45:48;100542.64;;;16.76;38.78
54872;BME280;43914;57.680;11.982;2023-05-10T09:48:18;100536.28;;;16.82;38.21
54872;BME280;43914;57.680;11.982;2023-05-10T09:50:56;100534.83;;;16.90;38.02
54872;BME280;43914;57.680;11.982;2023-05-10T09:53:23;100537.17;;;16.99;37.79
54872;BME280;43914;57.680;11.982;2023-05-10T09:55:48;100535.90;;;17.08;37.41
54872;BME280;43914;57.680;11.982;2023-05-10T09:58:15;100541.64;;;17.16;37.22
54872;BME280;43914;57.680;11.982;2023-05-10T10:00:42;100533.97;;;17.27;36.75
54872;BME280;43914;57.680;11.982;2023-05-10T10:03:17;100530.99;;;17.34;36.69
54872;BME280;43914;57.680;11.982;2023-05-10T10:05:43;100534.84;;;17.43;36.89
54872;BME280;43914;57.680;11.982;2023-05-10T10:08:10;100534.64;;;17.53;36.81
54872;BME280;43914;57.680;11.982;2023-05-10T10:10:36;100539.86;;;17.56;36.74
54872;BME280;43914;57.680;11.982;2023-05-10T10:13:02;100525.64;;;17.61;36.52
54872;BME280;43914;57.680;11.982;2023-05-10T10:15:28;100525.14;;;17.66;35.64
54872;BME280;43914;57.680;11.982;2023-05-10T10:17:53;100525.15;;;17.71;36.11
54872;BME280;43914;57.680;11.982;2023-05-10T10:20:21;100527.08;;;17.82;36.36
54872;BME280;43914;57.680;11.982;2023-05-10T10:22:47;100521.63;;;17.94;35.63
54872;BME280;43914;57.680;11.982;2023-05-10T10:25:17;100518.83;;;17.97;35.40
54872;BME280;43914;57.680;11.982;2023-05-10T10:35:30;100519.23;;;18.22;34.77
54872;BME280;43914;57.680;11.982;2023-05-10T10:37:57;100513.31;;;18.30;34.41
54872;BME280;43914;57.680;11.982;2023-05-10T10:40:26;100511.42;;;18.37;34.71
54872;BME280;43914;57.680;11.982;2023-05-10T10:42:53;100518.58;;;18.50;34.90
54872;BME280;43914;57.680;11.982;2023-05-10T10:45:19;100511.53;;;18.60;35.00
54872;BME280;43914;57.680;11.982;2023-05-10T10:47:45;100512.06;;;18.71;34.73
54872;BME280;43914;57.680;11.982;2023-05-10T10:50:11;100509.80;;;18.75;33.56
54872;BME280;43914;57.680;11.982;2023-05-10T10:52:42;100512.98;;;18.77;33.88
54872;BME280;43914;57.680;11.982;2023-05-10T10:55:13;100514.63;;;18.84;34.01
54872;BME280;43914;57.680;11.982;2023-05-10T10:57:53;100501.27;;;18.93;33.35
54872;BME280;43914;57.680;11.982;2023-05-10T11:00:33;100505.96;;;18.96;33.09
54872;BME280;43914;57.680;11.982;2023-05-10T11:03:09;100503.95;;;19.04;32.93
54872;BME280;43914;57.680;11.982;2023-05-10T11:08:33;100495.08;;;19.26;32.66
54872;BME280;43914;57.680;11.982;2023-05-10T11:11:06;100489.98;;;19.34;32.51
54872;BME280;43914;57.680;11.982;2023-05-10T11:13:39;100487.30;;;19.42;31.77
54872;BME280;43914;57.680;11.982;2023-05-10T11:16:14;100498.71;;;19.43;31.79
54872;BME280;43914;57.680;11.982;2023-05-10T11:18:40;100498.80;;;19.49;32.21
54872;BME280;43914;57.680;11.982;2023-05-10T11:21:08;100485.36;;;19.62;32.37
54872;BME280;43914;57.680;11.982;2023-05-10T11:23:57;100487.63;;;19.77;32.03
54872;BME280;43914;57.680;11.982;2023-05-10T11:26:31;100489.30;;;19.88;31.44
54872;BME280;43914;57.680;11.982;2023-05-10T11:28:57;100492.40;;;19.94;30.68
54872;BME280;43914;57.680;11.982;2023-05-10T11:31:27;100494.05;;;19.95;30.89
54872;BME280;43914;57.680;11.982;2023-05-10T11:33:54;100492.14;;;20.04;31.26
54872;BME280;43914;57.680;11.982;2023-05-10T11:36:25;100495.85;;;20.17;30.47
54872;BME280;43914;57.680;11.982;2023-05-10T11:38:51;100492.14;;;20.27;30.93
54872;BME280;43914;57.680;11.982;2023-05-10T11:41:18;100493.73;;;20.43;30.94
54872;BME280;43914;57.680;11.982;2023-05-10T11:43:51;100493.34;;;20.53;30.31
54872;BME280;43914;57.680;11.982;2023-05-10T11:46:19;100487.67;;;20.59;30.30
54872;BME280;43914;57.680;11.982;2023-05-10T11:48:47;100481.98;;;20.63;30.02
54872;BME280;43914;57.680;11.982;2023-05-10T11:51:15;100483.39;;;20.63;29.74
54872;BME280;43914;57.680;11.982;2023-05-10T11:53:41;100487.53;;;20.67;29.62
54872;BME280;43914;57.680;11.982;2023-05-10T11:56:08;100488.54;;;20.72;28.36
54872;BME280;43914;57.680;11.982;2023-05-10T11:58:35;100483.37;;;20.73;27.93
54872;BME280;43914;57.680;11.982;2023-05-10T12:01:02;100482.08;;;20.74;28.09
54872;BME280;43914;57.680;11.982;2023-05-10T12:03:28;100485.20;;;20.80;28.61
54872;BME280;43914;57.680;11.982;2023-05-10T12:05:55;100487.69;;;20.94;28.86
54872;BME280;43914;57.680;11.982;2023-05-10T12:08:23;100483.33;;;21.08;28.79
54872;BME280;43914;57.680;11.982;2023-05-10T12:10:50;100484.98;;;21.17;28.66
54872;BME280;43914;57.680;11.982;2023-05-10T12:13:16;100483.21;;;21.33;28.94
54872;BME280;43914;57.680;11.982;2023-05-10T12:15:43;100485.90;;;21.40;26.16
54872;BME280;43914;57.680;11.982;2023-05-10T12:18:13;100490.99;;;21.50;26.99
54872;BME280;43914;57.680;11.982;2023-05-10T12:20:39;100491.39;;;21.62;26.04
54872;BME280;43914;57.680;11.982;2023-05-10T12:23:08;100484.66;;;21.68;25.53
54872;BME280;43914;57.680;11.982;2023-05-10T12:25:35;100476.67;;;21.77;24.48
54872;BME280;43914;57.680;11.982;2023-05-10T12:28:06;100473.29;;;21.81;24.32
54872;BME280;43914;57.680;11.982;2023-05-10T12:30:33;100478.41;;;21.87;24.42
54872;BME280;43914;57.680;11.982;2023-05-10T12:35:27;100477.30;;;22.30;25.78
54872;BME280;43914;57.680;11.982;2023-05-10T12:37:54;100475.25;;;22.56;25.26
54872;BME280;43914;57.680;11.982;2023-05-10T12:40:20;100476.41;;;22.65;25.26
54872;BME280;43914;57.680;11.982;2023-05-10T12:42:45;100477.90;;;22.69;25.32
54872;BME280;43914;57.680;11.982;2023-05-10T12:45:11;100475.60;;;22.88;25.34
54872;BME280;43914;57.680;11.982;2023-05-10T12:47:37;100475.42;;;23.14;25.65
54872;BME280;43914;57.680;11.982;2023-05-10T12:50:05;100481.68;;;23.29;24.71
54872;BME280;43914;57.680;11.982;2023-05-10T12:52:31;100473.69;;;23.37;24.76
54872;BME280;43914;57.680;11.982;2023-05-10T12:54:59;100474.84;;;23.52;24.89
54872;BME280;43914;57.680;11.982;2023-05-10T12:57:25;100467.05;;;23.72;25.11
54872;BME280;43914;57.680;11.982;2023-05-10T12:59:51;100463.03;;;23.89;24.46
54872;BME280;43914;57.680;11.982;2023-05-10T13:02:16;100466.30;;;23.98;24.52
54872;BME280;43914;57.680;11.982;2023-05-10T13:04:46;100467.05;;;24.25;24.43
54872;BME280;43914;57.680;11.982;2023-05-10T13:07:12;100469.61;;;24.45;23.75
54872;BME280;43914;57.680;11.982;2023-05-10T13:09:38;100468.31;;;24.43;23.06